Hovedside
METAR-TAF:

METAR-TAF

Lufthavner :

Mosjøen, Norge

Mosjøen lufthavn

breddegrad: 65-48N, lengdegrad: 013-08E, høyde over havet: 70 m

Gjeldene værobservasjon

Denne rapporten ble laget for 19 minutter siden, klokken 14:20 UTC
Vind 9 kt fra Sørøst, skiftende mellom Øst og Sør
Temperatur -1°C
Luftfuktighet 64%
Trykk 1006 hPa
Sikt 10 km eller mer
Spredte skyer i en høyde av 4000 ft
Brutte skyer i en høyde av 5100 ft
regnbyger i nærheten

METAR: ENMS 221420Z 13009KT 080V190 9999 VCSH SCT040 BKN051 M01/M07 Q1006 RMK WIND 412FT 11013G29KT 070V160

Tid: 15:39 (14:39 UTC)


TAF: fraværende

Værobservasjoner og værvarsel for over 4000 flyplasser (METAR- og TAF-rapporter).

Tilgjengelige stasjoner er representert av de røde og gule prikkene på kartet.

Hold musepekeren over prikken for å se navnet på stasjonen.

Klikk så for å se værobservasjoner og -varsler.

For å forandre kartet kan du klikke på den grønne knappen med svart kryss for å zoome inn, på den grønne knappen med strek for å zoome ut, eller på de grønne pilene for å se tilstøtende kart.


METAR-TAF: